createdAt,value
2018-02-07T00:02:20.264Z,92.40
2018-02-07T00:04:48.364Z,92.30
2018-02-07T00:07:16.515Z,91.90
2018-02-07T00:09:44.632Z,91.10
2018-02-07T00:12:13.548Z,91.20
2018-02-07T00:14:41.670Z,91.20
2018-02-07T00:17:09.797Z,91.50
2018-02-07T00:19:39.079Z,91.30
2018-02-07T00:22:07.228Z,91.30
2018-02-07T00:24:35.345Z,91.30
2018-02-07T00:27:03.479Z,91.70
2018-02-07T00:29:32.384Z,91.70
2018-02-07T00:32:01.391Z,91.30
2018-02-07T00:34:29.520Z,91.30
2018-02-07T00:36:57.640Z,91.40
2018-02-07T00:39:25.784Z,91.00
2018-02-07T00:41:53.903Z,91.20
2018-02-07T00:44:22.140Z,91.10
2018-02-07T00:46:51.034Z,91.00
2018-02-07T00:49:19.919Z,90.90
2018-02-07T00:51:48.826Z,91.10
2018-02-07T00:54:17.707Z,91.20
2018-02-07T00:56:46.964Z,91.10
2018-02-07T00:59:15.101Z,91.10
2018-02-07T01:01:43.224Z,91.10
2018-02-07T01:04:11.355Z,91.00
2018-02-07T01:06:39.472Z,90.80
2018-02-07T01:09:07.619Z,91.00
2018-02-07T01:11:35.741Z,90.70
2018-02-07T01:14:04.628Z,90.60
2018-02-07T01:16:33.534Z,90.90
2018-02-07T01:19:02.414Z,90.80
2018-02-07T01:21:31.552Z,90.70
2018-02-07T01:23:59.684Z,90.60
2018-02-07T01:26:27.812Z,90.50
2018-02-07T01:28:55.942Z,90.30
2018-02-07T01:31:24.831Z,89.80
2018-02-07T01:33:54.055Z,90.00
2018-02-07T01:36:22.171Z,90.00
2018-02-07T01:38:50.821Z,90.30
2018-02-07T01:41:19.816Z,89.50
2018-02-07T01:43:47.940Z,90.30
2018-02-07T01:46:16.882Z,90.30
2018-02-07T01:48:45.012Z,90.10
2018-02-07T01:51:13.896Z,89.90
2018-02-07T01:53:42.024Z,90.00
2018-02-07T01:56:10.164Z,90.20
2018-02-07T01:58:39.688Z,89.00
2018-02-07T02:01:07.817Z,88.80
2018-02-07T02:03:35.940Z,88.70
2018-02-07T02:06:04.104Z,89.30
2018-02-07T02:08:32.227Z,89.30
2018-02-07T02:11:00.676Z,89.00
2018-02-07T02:13:28.792Z,88.80
2018-02-07T02:15:56.924Z,88.00
2018-02-07T02:18:25.076Z,89.30
2018-02-07T02:20:53.196Z,88.60
2018-02-07T02:23:21.328Z,89.00
2018-02-07T02:25:50.220Z,88.50
2018-02-07T02:28:18.349Z,88.30
2018-02-07T02:30:46.767Z,87.50
2018-02-07T02:33:14.895Z,89.40
2018-02-07T02:38:44.938Z,89.10
2018-02-07T02:41:13.081Z,88.50
2018-02-07T02:43:41.228Z,87.40
2018-02-07T02:46:10.219Z,88.00
2018-02-07T02:48:38.347Z,87.90
2018-02-07T02:51:06.472Z,89.10
2018-02-07T02:53:34.594Z,89.20
2018-02-07T02:56:02.741Z,89.00
2018-02-07T02:58:30.866Z,88.90
2018-02-07T03:00:59.773Z,89.50
2018-02-07T03:03:28.260Z,88.80
2018-02-07T03:05:56.678Z,89.20
2018-02-07T03:08:24.826Z,88.40
2018-02-07T03:10:52.981Z,87.50
2018-02-07T03:13:21.108Z,88.80
2018-02-07T03:15:49.234Z,87.70
2018-02-07T03:18:17.364Z,88.20
2018-02-07T03:20:45.876Z,87.30
2018-02-07T03:23:14.007Z,87.00
2018-02-07T03:25:43.129Z,87.70
2018-02-07T03:28:11.252Z,87.50
2018-02-07T03:30:39.418Z,86.80
2018-02-07T03:33:07.551Z,87.70
2018-02-07T03:35:36.456Z,87.10
2018-02-07T03:38:04.571Z,87.40
2018-02-07T03:40:32.728Z,88.00
2018-02-07T03:43:00.867Z,86.20
2018-02-07T03:45:29.781Z,87.50
2018-02-07T03:47:57.906Z,87.20
2018-02-07T03:50:26.052Z,87.20
2018-02-07T03:52:54.176Z,88.00
2018-02-07T03:55:23.047Z,87.00
2018-02-07T03:57:51.218Z,86.90
2018-02-07T04:00:19.317Z,86.70
2018-02-07T04:02:48.243Z,87.20
2018-02-07T04:05:16.360Z,87.20
2018-02-07T04:07:44.492Z,86.40
2018-02-07T04:10:13.419Z,86.80
2018-02-07T04:12:41.547Z,87.00
2018-02-07T04:15:09.732Z,87.50
2018-02-07T04:17:37.859Z,87.60
2018-02-07T04:20:06.064Z,86.10
2018-02-07T04:22:34.186Z,87.10
2018-02-07T04:25:02.300Z,87.30
2018-02-07T04:27:30.424Z,88.00
2018-02-07T04:29:58.534Z,87.80
2018-02-07T04:32:27.428Z,87.80
2018-02-07T04:34:56.323Z,87.20
2018-02-07T04:37:24.476Z,87.20
2018-02-07T04:39:52.624Z,87.40
2018-02-07T04:42:20.752Z,87.30
2018-02-07T04:44:48.872Z,87.70
2018-02-07T04:47:17.020Z,87.70
2018-02-07T04:49:45.155Z,89.00
2018-02-07T04:52:14.153Z,87.60
2018-02-07T04:54:43.043Z,86.40
2018-02-07T04:57:11.932Z,87.80
2018-02-07T04:59:40.887Z,87.80
2018-02-07T05:02:09.097Z,87.70
2018-02-07T05:04:38.319Z,90.00
2018-02-07T05:07:06.439Z,89.00
2018-02-07T05:09:35.505Z,90.10
2018-02-07T05:12:03.662Z,89.90
2018-02-07T05:14:31.784Z,89.10
2018-02-07T05:16:59.919Z,88.70
2018-02-07T05:19:28.092Z,89.30
2018-02-07T05:21:56.232Z,89.50
2018-02-07T05:24:25.120Z,89.10
2018-02-07T05:26:54.016Z,88.70
2018-02-07T05:29:22.937Z,88.40
2018-02-07T05:31:51.084Z,87.90
2018-02-07T05:34:19.969Z,86.60
2018-02-07T05:36:48.859Z,87.80
2018-02-07T05:39:17.754Z,88.00
2018-02-07T05:41:46.640Z,88.00
2018-02-07T05:44:15.607Z,88.40
2018-02-07T05:46:43.743Z,88.40
2018-02-07T05:49:11.884Z,87.50
2018-02-07T05:51:41.515Z,89.90
2018-02-07T05:54:09.635Z,89.10
2018-02-07T05:56:38.686Z,89.80
2018-02-07T05:59:06.786Z,89.40
2018-02-07T06:01:35.747Z,88.80
2018-02-07T06:04:03.892Z,88.90
2018-02-07T06:06:32.804Z,90.00
2018-02-07T06:09:01.715Z,89.00
2018-02-07T06:11:29.870Z,88.80
2018-02-07T06:13:57.957Z,89.00
2018-02-07T06:16:26.088Z,89.00
2018-02-07T06:18:54.202Z,88.70
2018-02-07T06:21:22.651Z,88.60
2018-02-07T06:23:51.052Z,88.40
2018-02-07T06:26:19.208Z,87.50
2018-02-07T06:28:48.124Z,89.00
2018-02-07T06:31:16.305Z,88.00
2018-02-07T06:33:44.781Z,89.40
2018-02-07T06:36:12.899Z,88.20
2018-02-07T06:38:41.057Z,88.60
2018-02-07T06:41:09.167Z,89.50
2018-02-07T06:43:38.076Z,88.80
2018-02-07T06:46:06.960Z,89.70
2018-02-07T06:48:35.877Z,89.00
2018-02-07T06:51:04.168Z,88.70
2018-02-07T06:53:32.339Z,88.60
2018-02-07T06:56:00.472Z,88.70
2018-02-07T06:58:28.600Z,88.20
2018-02-07T07:00:56.712Z,88.60
2018-02-07T07:03:25.631Z,88.50
2018-02-07T07:05:53.754Z,88.30
2018-02-07T07:08:21.929Z,88.20
2018-02-07T07:10:50.399Z,88.40
2018-02-07T07:13:18.974Z,86.80
2018-02-07T07:15:47.088Z,87.00
2018-02-07T07:18:16.102Z,87.00
2018-02-07T07:20:44.212Z,87.00
2018-02-07T07:23:12.371Z,87.60
2018-02-07T07:25:40.508Z,88.00
2018-02-07T07:28:09.987Z,86.80
2018-02-07T07:30:38.133Z,86.60
2018-02-07T07:33:06.585Z,86.30
2018-02-07T07:35:34.731Z,87.60
2018-02-07T07:38:03.853Z,86.80
2018-02-07T07:40:31.994Z,86.90
2018-02-07T07:43:00.107Z,86.40
2018-02-07T07:45:28.231Z,86.50
2018-02-07T07:47:56.758Z,84.10
2018-02-07T07:50:25.749Z,84.30
2018-02-07T07:52:54.640Z,84.10
2018-02-07T07:55:23.145Z,84.10
2018-02-07T07:57:51.259Z,85.10
2018-02-07T08:00:19.383Z,85.40
2018-02-07T08:02:48.176Z,87.10
2018-02-07T08:05:16.337Z,85.90
2018-02-07T08:07:44.972Z,84.60
2018-02-07T08:10:13.201Z,85.00
2018-02-07T08:12:41.373Z,85.30
2018-02-07T08:15:09.490Z,84.80
2018-02-07T08:17:37.628Z,85.60
2018-02-07T08:20:06.134Z,84.90
2018-02-07T08:22:34.274Z,85.00
2018-02-07T08:25:02.835Z,82.70
2018-02-07T08:27:30.958Z,82.70
2018-02-07T08:29:59.107Z,83.30
2018-02-07T08:32:27.277Z,81.70
2018-02-07T08:34:55.393Z,82.10
2018-02-07T08:37:23.511Z,81.90
2018-02-07T08:39:51.859Z,82.60
2018-02-07T08:42:19.986Z,81.30
2018-02-07T08:44:48.111Z,81.90
2018-02-07T08:47:16.399Z,81.20
2018-02-07T08:49:44.533Z,78.80
2018-02-07T08:52:12.662Z,78.10
2018-02-07T08:54:40.841Z,78.00
2018-02-07T08:57:10.278Z,77.20
2018-02-07T08:59:38.416Z,77.50
2018-02-07T09:02:06.655Z,76.80
2018-02-07T09:04:34.776Z,77.70
2018-02-07T09:07:02.920Z,76.70
2018-02-07T09:09:31.866Z,75.60
2018-02-07T09:11:59.960Z,75.50
2018-02-07T09:14:28.143Z,75.70
2018-02-07T09:16:56.296Z,76.90
2018-02-07T09:19:25.519Z,77.60
2018-02-07T09:21:54.723Z,77.50
2018-02-07T09:24:22.847Z,78.40
2018-02-07T09:26:51.860Z,78.70
2018-02-07T09:29:20.902Z,78.40
2018-02-07T09:31:49.794Z,76.60
2018-02-07T09:34:18.681Z,76.30
2018-02-07T09:36:48.329Z,74.80
2018-02-07T09:39:16.511Z,74.70
2018-02-07T09:41:44.704Z,74.20
2018-02-07T09:44:12.853Z,74.80
2018-02-07T09:46:40.975Z,74.60
2018-02-07T09:49:10.777Z,76.10
2018-02-07T09:51:38.891Z,74.90
2018-02-07T09:54:07.036Z,76.50
2018-02-07T09:56:35.940Z,73.70
2018-02-07T09:59:04.105Z,73.70
2018-02-07T10:01:33.432Z,73.50
2018-02-07T10:04:01.604Z,71.80
2018-02-07T10:06:30.084Z,72.50
2018-02-07T10:08:58.944Z,73.30
2018-02-07T10:11:27.850Z,71.80
2018-02-07T10:13:56.743Z,66.30
2018-02-07T10:16:24.872Z,66.40
2018-02-07T10:18:53.024Z,64.40
2018-02-07T10:21:21.187Z,63.50
2018-02-07T10:23:49.296Z,63.30
2018-02-07T10:26:17.433Z,61.00
2018-02-07T10:28:46.195Z,60.00
2018-02-07T10:31:15.112Z,61.90
2018-02-07T10:33:43.222Z,61.80
2018-02-07T10:36:11.605Z,61.20
2018-02-07T10:38:39.723Z,60.10
2018-02-07T10:41:07.897Z,62.00
2018-02-07T10:43:36.015Z,62.00
2018-02-07T10:46:04.254Z,61.50
2018-02-07T10:48:32.415Z,64.00
2018-02-07T10:51:00.795Z,60.50
2018-02-07T10:53:28.921Z,65.80
2018-02-07T10:55:57.034Z,64.70
2018-02-07T10:58:25.970Z,64.50
2018-02-07T11:00:54.847Z,64.70
2018-02-07T11:03:23.093Z,63.10
2018-02-07T11:05:51.980Z,70.20
2018-02-07T11:08:20.873Z,65.90
2018-02-07T11:10:49.767Z,65.30
2018-02-07T11:13:18.663Z,66.50
2018-02-07T11:15:46.782Z,66.30
2018-02-07T11:18:14.907Z,65.60
2018-02-07T11:20:43.031Z,69.90
2018-02-07T11:23:11.165Z,66.70
2018-02-07T11:25:39.299Z,69.10
2018-02-07T11:28:07.436Z,70.00
2018-02-07T11:30:35.543Z,67.50
2018-02-07T11:33:03.691Z,68.20
2018-02-07T11:35:31.803Z,68.70
2018-02-07T11:38:01.028Z,66.20
2018-02-07T11:40:29.144Z,66.10
2018-02-07T11:42:57.266Z,63.80
2018-02-07T11:45:25.400Z,64.10
2018-02-07T11:47:53.507Z,64.30
2018-02-07T11:50:21.630Z,68.30
2018-02-07T11:52:49.755Z,68.80
2018-02-07T11:55:18.653Z,68.40
2018-02-07T11:57:46.776Z,68.10
2018-02-07T12:00:14.905Z,67.50
2018-02-07T12:02:43.023Z,67.80
2018-02-07T12:05:11.167Z,68.10
2018-02-07T12:07:39.306Z,71.50
2018-02-07T12:10:08.200Z,72.50
2018-02-07T12:12:36.319Z,71.90
2018-02-07T12:15:04.464Z,69.80
2018-02-07T12:17:32.579Z,68.20
2018-02-07T12:20:00.731Z,68.60
2018-02-07T12:22:28.850Z,69.60
2018-02-07T12:24:57.747Z,72.80
2018-02-07T12:27:26.653Z,71.80
2018-02-07T12:29:54.763Z,71.60
2018-02-07T12:32:22.910Z,73.20
2018-02-07T12:34:51.181Z,69.30
2018-02-07T12:37:20.068Z,67.80
2018-02-07T12:39:48.231Z,68.00
2018-02-07T12:42:17.127Z,68.00
2018-02-07T12:44:45.267Z,67.70
2018-02-07T12:47:13.419Z,68.60
2018-02-07T12:49:41.527Z,67.60
2018-02-07T12:52:10.424Z,71.10
2018-02-07T12:54:39.299Z,70.10
2018-02-07T12:57:07.435Z,70.20
2018-02-07T12:59:35.560Z,65.60
2018-02-07T13:02:04.463Z,65.50
2018-02-07T13:04:33.343Z,64.80
2018-02-07T13:07:02.247Z,66.80
2018-02-07T13:09:31.760Z,65.00
2018-02-07T13:12:00.642Z,65.20
2018-02-07T13:14:29.536Z,64.40
2018-02-07T13:16:58.546Z,66.90
2018-02-07T13:19:26.679Z,67.20
2018-02-07T13:21:54.805Z,65.20
2018-02-07T13:24:22.930Z,64.70
2018-02-07T13:26:51.809Z,68.10
2018-02-07T13:29:19.944Z,67.40
2018-02-07T13:31:48.055Z,67.10
2018-02-07T13:34:16.200Z,69.20
2018-02-07T13:36:44.311Z,69.50
2018-02-07T13:39:12.439Z,65.80
2018-02-07T13:41:40.567Z,66.20
2018-02-07T13:44:08.695Z,70.20
2018-02-07T13:46:36.814Z,65.20
2018-02-07T13:49:05.843Z,66.30
2018-02-07T13:51:34.000Z,66.10
2018-02-07T13:54:02.164Z,68.00
2018-02-07T13:56:30.360Z,66.90
2018-02-07T13:58:58.476Z,64.90
2018-02-07T14:01:26.614Z,64.80
2018-02-07T14:03:54.735Z,65.90
2018-02-07T14:06:22.875Z,66.10
2018-02-07T14:08:51.004Z,67.20
2018-02-07T14:11:19.903Z,68.00
2018-02-07T14:13:48.027Z,67.90
2018-02-07T14:16:16.163Z,66.10
2018-02-07T14:18:44.293Z,65.50
2018-02-07T14:21:12.431Z,65.40
2018-02-07T14:23:40.547Z,64.90
2018-02-07T14:26:09.471Z,64.90
2018-02-07T14:28:37.590Z,64.50
2018-02-07T14:31:05.733Z,67.00
2018-02-07T14:33:33.842Z,67.40
2018-02-07T14:36:02.309Z,67.60
2018-02-07T14:38:30.420Z,65.60
2018-02-07T14:40:59.303Z,64.70
2018-02-07T14:43:28.199Z,65.30
2018-02-07T14:45:57.087Z,65.60
2018-02-07T14:48:25.993Z,66.90
2018-02-07T14:50:54.892Z,65.80
2018-02-07T14:53:23.024Z,65.80
2018-02-07T14:55:51.139Z,66.40
2018-02-07T14:58:20.045Z,68.60
2018-02-07T15:00:48.156Z,68.00
2018-02-07T15:03:16.285Z,64.30
2018-02-07T15:05:44.399Z,65.30
2018-02-07T15:08:12.555Z,65.50
2018-02-07T15:10:40.671Z,63.80
2018-02-07T15:13:09.567Z,63.80
2018-02-07T15:15:38.457Z,63.50
2018-02-07T15:18:07.372Z,62.60
2018-02-07T15:20:35.525Z,62.20
2018-02-07T15:23:04.449Z,60.80
2018-02-07T15:25:32.561Z,61.00
2018-02-07T15:28:00.679Z,60.80
2018-02-07T15:30:28.808Z,61.30
2018-02-07T15:32:56.923Z,62.10
2018-02-07T15:35:25.055Z,63.30
2018-02-07T15:37:53.212Z,64.10
2018-02-07T15:40:21.360Z,65.10
2018-02-07T15:42:49.471Z,64.40
2018-02-07T15:45:17.608Z,64.40
2018-02-07T15:47:45.732Z,62.60
2018-02-07T15:50:13.953Z,62.70
2018-02-07T15:52:42.119Z,62.50
2018-02-07T15:55:10.273Z,63.50
2018-02-07T15:57:39.165Z,63.30
2018-02-07T16:00:08.063Z,63.30
2018-02-07T16:02:36.175Z,62.90
2018-02-07T16:05:04.313Z,62.00
2018-02-07T16:07:32.447Z,62.70
2018-02-07T16:10:00.584Z,63.10
2018-02-07T16:12:28.737Z,62.60
2018-02-07T16:14:57.610Z,63.80
2018-02-07T16:17:26.499Z,63.40
2018-02-07T16:19:55.380Z,61.00
2018-02-07T16:22:23.503Z,61.00
2018-02-07T16:24:51.616Z,62.60
2018-02-07T16:27:19.750Z,62.50
2018-02-07T16:29:47.888Z,62.60
2018-02-07T16:32:16.797Z,62.30
2018-02-07T16:34:44.978Z,62.00
2018-02-07T16:37:13.094Z,62.10
2018-02-07T16:39:41.214Z,61.80
2018-02-07T16:42:09.348Z,62.30
2018-02-07T16:44:37.455Z,62.40
2018-02-07T16:47:05.636Z,61.80
2018-02-07T16:49:33.764Z,62.70
2018-02-07T16:52:02.201Z,62.50
2018-02-07T16:54:30.323Z,63.60
2018-02-07T16:56:58.471Z,64.70
2018-02-07T17:02:01.141Z,65.10
2018-02-07T17:04:29.292Z,64.30
2018-02-07T17:06:58.192Z,64.30
2018-02-07T17:09:28.071Z,64.20
2018-02-07T17:11:56.191Z,64.70
2018-02-07T17:14:24.369Z,64.40
2018-02-07T17:16:52.500Z,64.50
2018-02-07T17:19:20.664Z,64.20
2018-02-07T17:21:48.778Z,65.40
2018-02-07T17:24:16.907Z,64.50
2018-02-07T17:26:45.025Z,63.80
2018-02-07T17:29:13.244Z,64.40
2018-02-07T17:31:41.360Z,64.30
2018-02-07T17:34:10.281Z,63.90
2018-02-07T17:36:38.382Z,64.10
2018-02-07T17:39:06.834Z,63.80
2018-02-07T17:41:34.939Z,63.50
2018-02-07T17:44:03.064Z,63.40
2018-02-07T17:46:31.192Z,63.40
2018-02-07T17:48:59.320Z,63.50
2018-02-07T17:51:27.457Z,64.00
2018-02-07T17:53:55.569Z,64.50
2018-02-07T17:56:23.700Z,65.70
2018-02-07T17:58:51.914Z,65.20
2018-02-07T18:01:20.085Z,65.30
2018-02-07T18:03:48.263Z,66.40
2018-02-07T18:06:16.395Z,65.60
2018-02-07T18:08:44.524Z,66.80
2018-02-07T18:11:12.681Z,66.40
2018-02-07T18:13:41.630Z,66.40
2018-02-07T18:16:09.755Z,67.00
2018-02-07T18:18:37.896Z,67.60
2018-02-07T18:21:06.859Z,68.00
2018-02-07T18:23:34.984Z,67.80
2018-02-07T18:26:03.107Z,66.60
2018-02-07T18:28:31.260Z,68.50
2018-02-07T18:30:59.391Z,68.50
2018-02-07T18:33:28.284Z,70.40
2018-02-07T18:35:57.204Z,71.30
2018-02-07T18:38:25.349Z,69.80
2018-02-07T18:40:54.975Z,72.50
2018-02-07T18:43:24.293Z,72.50
2018-02-07T18:45:52.438Z,73.50
2018-02-07T18:48:21.384Z,74.50
2018-02-07T18:50:49.555Z,73.40
2018-02-07T18:53:17.689Z,73.80
2018-02-07T18:55:45.863Z,74.60
2018-02-07T18:58:13.983Z,75.10
2018-02-07T19:00:42.211Z,75.60
2018-02-07T19:03:10.352Z,76.00
2018-02-07T19:05:39.235Z,76.30
2018-02-07T19:08:07.396Z,76.10
2018-02-07T19:10:35.508Z,75.50
2018-02-07T19:13:03.643Z,76.40
2018-02-07T19:15:31.868Z,75.40
2018-02-07T19:18:00.751Z,74.60
2018-02-07T19:20:28.896Z,74.50
2018-02-07T19:22:57.029Z,74.70
2018-02-07T19:25:25.203Z,74.70
2018-02-07T19:27:53.354Z,73.80
2018-02-07T19:30:21.475Z,75.30
2018-02-07T19:32:49.611Z,74.90
2018-02-07T19:35:17.753Z,75.50
2018-02-07T19:37:46.674Z,74.30
2018-02-07T19:40:14.835Z,74.00
2018-02-07T19:42:42.987Z,74.20
2018-02-07T19:45:11.882Z,75.70
2018-02-07T19:47:40.771Z,76.50
2018-02-07T19:50:09.662Z,75.10
2018-02-07T19:52:38.576Z,76.10
2018-02-07T19:55:07.054Z,76.00
2018-02-07T19:57:35.184Z,75.40
2018-02-07T20:00:03.340Z,75.60
2018-02-07T20:02:31.496Z,76.10
2018-02-07T20:04:59.611Z,76.30
2018-02-07T20:07:27.749Z,76.20
2018-02-07T20:09:55.867Z,74.70
2018-02-07T20:12:23.991Z,76.30
2018-02-07T20:14:52.139Z,76.60
2018-02-07T20:17:20.312Z,76.70
2018-02-07T20:19:49.184Z,75.40
2018-02-07T20:22:18.073Z,77.00
2018-02-07T20:24:46.955Z,77.10
2018-02-07T20:27:15.102Z,77.30
2018-02-07T20:29:43.267Z,77.40
2018-02-07T20:32:11.413Z,78.10
2018-02-07T20:34:39.534Z,77.90
2018-02-07T20:37:07.674Z,76.60
2018-02-07T20:39:35.791Z,78.20
2018-02-07T20:42:04.226Z,78.30
2018-02-07T20:44:33.107Z,78.20
2018-02-07T20:47:01.210Z,78.20
2018-02-07T20:49:30.168Z,78.30
2018-02-07T20:51:58.287Z,78.70
2018-02-07T20:54:26.427Z,78.50
2018-02-07T20:56:54.577Z,78.70
2018-02-07T20:59:22.717Z,79.30
2018-02-07T21:01:50.899Z,78.60
2018-02-07T21:04:19.254Z,78.80
2018-02-07T21:06:47.390Z,79.20
2018-02-07T21:09:15.531Z,79.80
2018-02-07T21:11:44.451Z,79.80
2018-02-07T21:14:12.579Z,79.70
2018-02-07T21:16:40.766Z,80.00
2018-02-07T21:19:08.966Z,81.30
2018-02-07T21:21:37.094Z,80.70
2018-02-07T21:24:05.334Z,80.70
2018-02-07T21:26:33.464Z,80.80
2018-02-07T21:29:01.636Z,81.10
2018-02-07T21:31:30.712Z,81.70
2018-02-07T21:33:58.827Z,81.60
2018-02-07T21:36:27.721Z,81.20
2018-02-07T21:38:55.879Z,81.30
2018-02-07T21:41:23.994Z,81.10
2018-02-07T21:43:52.130Z,81.40
2018-02-07T21:46:21.092Z,81.90
2018-02-07T21:48:49.202Z,81.80
2018-02-07T21:51:18.100Z,82.50
2018-02-07T21:53:46.991Z,82.30
2018-02-07T21:56:15.344Z,82.40
2018-02-07T21:58:43.466Z,82.50
2018-02-07T22:01:11.640Z,83.10
2018-02-07T22:03:40.619Z,82.30
2018-02-07T22:06:08.752Z,82.50
2018-02-07T22:08:36.878Z,83.50
2018-02-07T22:11:05.004Z,83.70
2018-02-07T22:13:33.889Z,83.40
2018-02-07T22:16:02.036Z,83.30
2018-02-07T22:18:30.191Z,83.00
2018-02-07T22:20:58.354Z,82.80
2018-02-07T22:23:26.500Z,82.70
2018-02-07T22:25:55.397Z,82.40
2018-02-07T22:28:23.555Z,82.10
2018-02-07T22:30:51.677Z,82.10
2018-02-07T22:33:19.896Z,82.00
2018-02-07T22:35:48.122Z,82.10
2018-02-07T22:38:16.245Z,81.90
2018-02-07T22:40:44.399Z,81.10
2018-02-07T22:43:12.543Z,82.10
2018-02-07T22:45:40.682Z,82.10
2018-02-07T22:48:08.903Z,81.90
2018-02-07T22:50:37.014Z,82.70
2018-02-07T22:53:05.230Z,82.60
2018-02-07T22:55:33.353Z,82.80
2018-02-07T22:58:01.626Z,82.60
2018-02-07T23:00:30.467Z,82.60
2018-02-07T23:02:58.623Z,82.50
2018-02-07T23:05:27.542Z,82.70
2018-02-07T23:07:55.680Z,83.40
2018-02-07T23:10:24.603Z,82.90
2018-02-07T23:12:52.716Z,82.80
2018-02-07T23:15:20.853Z,83.00
2018-02-07T23:17:48.994Z,83.10
2018-02-07T23:20:17.901Z,83.30
2018-02-07T23:22:46.018Z,83.00
2018-02-07T23:25:14.161Z,82.30
2018-02-07T23:27:42.292Z,82.60
2018-02-07T23:30:10.560Z,82.50
2018-02-07T23:32:38.691Z,82.40
2018-02-07T23:35:06.823Z,83.10
2018-02-07T23:37:35.875Z,84.00
2018-02-07T23:40:04.028Z,83.60
2018-02-07T23:42:32.186Z,84.10
2018-02-07T23:45:00.370Z,84.80
2018-02-07T23:47:28.496Z,84.90
2018-02-07T23:49:56.683Z,84.50
2018-02-07T23:52:25.622Z,83.80
2018-02-07T23:54:53.736Z,83.80
2018-02-07T23:57:21.993Z,84.30
2018-02-07T23:59:50.083Z,84.60
